createdAt,value
2023-02-27T00:00:25.954Z,48.24
2023-02-27T00:01:26.255Z,48.24
2023-02-27T00:02:25.951Z,48.24
2023-02-27T00:03:25.933Z,48.24
2023-02-27T00:04:25.907Z,48.24
2023-02-27T00:05:25.890Z,48.24
2023-02-27T00:06:25.891Z,48.24
2023-02-27T00:07:25.929Z,48.24
2023-02-27T00:08:25.979Z,48.34
2023-02-27T00:09:25.844Z,48.34
2023-02-27T00:10:25.842Z,48.34
2023-02-27T00:11:26.372Z,48.34
2023-02-27T00:12:25.825Z,48.34
2023-02-27T00:13:26.777Z,48.44
2023-02-27T00:14:25.797Z,48.44
2023-02-27T00:15:25.781Z,48.44
2023-02-27T00:16:25.833Z,48.44
2023-02-27T00:17:25.796Z,48.44
2023-02-27T00:18:25.770Z,48.44
2023-02-27T00:19:25.743Z,48.44
2023-02-27T00:20:25.729Z,48.44
2023-02-27T00:21:26.050Z,48.44
2023-02-27T00:22:25.709Z,48.44
2023-02-27T00:23:25.715Z,48.54
2023-02-27T00:24:25.685Z,48.44
2023-02-27T00:25:25.680Z,48.54
2023-02-27T00:26:25.686Z,48.54
2023-02-27T00:27:25.649Z,48.54
2023-02-27T00:28:25.648Z,48.56
2023-02-27T00:29:25.632Z,48.56
2023-02-27T00:30:25.676Z,48.56
2023-02-27T00:31:25.967Z,48.66
2023-02-27T00:32:25.642Z,48.56
2023-02-27T00:33:25.592Z,48.56
2023-02-27T00:34:25.582Z,48.56
2023-02-27T00:35:25.555Z,48.56
2023-02-27T00:36:25.564Z,48.56
2023-02-27T00:37:25.554Z,48.66
2023-02-27T00:38:25.545Z,48.66
2023-02-27T00:39:25.525Z,48.66
2023-02-27T00:40:25.524Z,48.66
2023-02-27T00:41:25.879Z,48.66
2023-02-27T00:42:25.497Z,48.66
2023-02-27T00:43:25.489Z,48.66
2023-02-27T00:44:25.467Z,48.76
2023-02-27T00:45:25.448Z,48.76
2023-02-27T00:46:25.459Z,48.76
2023-02-27T00:47:25.430Z,48.76
2023-02-27T00:48:25.433Z,48.76
2023-02-27T00:49:25.413Z,48.76
2023-02-27T00:50:25.407Z,48.76
2023-02-27T00:51:25.727Z,48.76
2023-02-27T00:52:25.382Z,48.76
2023-02-27T00:53:25.381Z,48.86
2023-02-27T00:54:25.362Z,48.86
2023-02-27T00:55:27.250Z,48.86
2023-02-27T00:56:25.342Z,48.86
2023-02-27T00:57:25.392Z,48.86
2023-02-27T00:58:25.332Z,48.86
2023-02-27T00:59:25.307Z,48.76
2023-02-27T01:00:25.320Z,48.76
2023-02-27T01:01:25.689Z,48.86
2023-02-27T01:02:25.314Z,48.76
2023-02-27T01:03:25.265Z,48.76
2023-02-27T01:04:25.270Z,48.76
2023-02-27T01:05:25.245Z,48.76
2023-02-27T01:06:25.241Z,48.76
2023-02-27T01:07:25.239Z,48.76
2023-02-27T01:08:25.222Z,48.76
2023-02-27T01:09:25.207Z,48.76
2023-02-27T01:10:25.206Z,48.76
2023-02-27T01:11:25.572Z,48.66
2023-02-27T01:12:25.187Z,48.76
2023-02-27T01:13:25.171Z,48.76
2023-02-27T01:14:25.171Z,48.76
2023-02-27T01:15:25.150Z,48.76
2023-02-27T01:16:25.176Z,48.76
2023-02-27T01:17:25.144Z,48.76
2023-02-27T01:18:25.136Z,48.76
2023-02-27T01:19:25.111Z,48.76
2023-02-27T01:20:25.107Z,48.76
2023-02-27T01:21:25.604Z,48.76
2023-02-27T01:22:25.070Z,48.76
2023-02-27T01:23:25.067Z,48.66
2023-02-27T01:24:25.070Z,48.66
2023-02-27T01:25:25.048Z,48.66
2023-02-27T01:26:25.054Z,48.66
2023-02-27T01:27:25.031Z,48.56
2023-02-27T01:28:25.011Z,48.56
2023-02-27T01:29:24.990Z,48.56
2023-02-27T01:30:25.065Z,48.56
2023-02-27T01:31:25.449Z,48.56
2023-02-27T01:32:25.136Z,48.56
2023-02-27T01:33:24.952Z,48.56
2023-02-27T01:34:24.952Z,48.56
2023-02-27T01:35:24.950Z,48.56
2023-02-27T01:36:24.933Z,48.56
2023-02-27T01:37:24.915Z,48.56
2023-02-27T01:38:24.908Z,48.56
2023-02-27T01:39:24.886Z,48.56
2023-02-27T01:40:24.886Z,48.56
2023-02-27T01:41:25.141Z,48.56
2023-02-27T01:42:24.864Z,48.56
2023-02-27T01:43:24.839Z,48.56
2023-02-27T01:44:24.837Z,48.56
2023-02-27T01:45:24.824Z,48.56
2023-02-27T01:46:24.825Z,48.56
2023-02-27T01:47:24.808Z,48.56
2023-02-27T01:48:24.793Z,48.56
2023-02-27T01:49:24.797Z,48.66
2023-02-27T01:50:24.769Z,48.66
2023-02-27T01:51:25.038Z,48.66
2023-02-27T01:52:24.746Z,48.66
2023-02-27T01:53:24.735Z,48.76
2023-02-27T01:54:24.725Z,48.76
2023-02-27T01:55:24.762Z,48.76
2023-02-27T01:56:24.712Z,48.76
2023-02-27T01:57:24.693Z,48.76
2023-02-27T01:58:24.679Z,48.76
2023-02-27T01:59:24.710Z,48.76
2023-02-27T02:00:24.664Z,48.76
2023-02-27T02:01:24.987Z,48.86
2023-02-27T02:02:24.712Z,48.86
2023-02-27T02:03:24.645Z,48.86
2023-02-27T02:04:24.633Z,48.86
2023-02-27T02:05:24.622Z,48.86
2023-02-27T02:06:24.591Z,48.86
2023-02-27T02:07:24.607Z,48.86
2023-02-27T02:08:24.570Z,48.86
2023-02-27T02:09:24.558Z,48.86
2023-02-27T02:10:24.609Z,48.96
2023-02-27T02:11:24.855Z,48.96
2023-02-27T02:12:24.543Z,48.99
2023-02-27T02:13:24.542Z,48.99
2023-02-27T02:14:24.521Z,48.99
2023-02-27T02:15:24.513Z,48.96
2023-02-27T02:16:24.507Z,48.99
2023-02-27T02:17:24.483Z,48.96
2023-02-27T02:18:24.468Z,48.99
2023-02-27T02:19:24.454Z,48.96
2023-02-27T02:20:24.443Z,48.99
2023-02-27T02:21:24.733Z,48.96
2023-02-27T02:22:24.421Z,48.99
2023-02-27T02:23:24.421Z,48.99
2023-02-27T02:24:24.397Z,48.99
2023-02-27T02:25:24.483Z,48.96
2023-02-27T02:26:25.022Z,49.09
2023-02-27T02:27:24.373Z,48.96
2023-02-27T02:28:24.362Z,49.09
2023-02-27T02:29:24.350Z,48.99
2023-02-27T02:30:25.105Z,49.09
2023-02-27T02:31:24.434Z,49.09
2023-02-27T02:32:24.404Z,49.09
2023-02-27T02:33:24.314Z,49.09
2023-02-27T02:34:24.301Z,48.99
2023-02-27T02:35:24.286Z,49.09
2023-02-27T02:36:24.272Z,49.09
2023-02-27T02:37:24.261Z,49.09
2023-02-27T02:38:24.260Z,49.09
2023-02-27T02:39:24.240Z,49.09
2023-02-27T02:40:24.249Z,49.09
2023-02-27T02:41:24.421Z,49.09
2023-02-27T02:42:24.218Z,49.09
2023-02-27T02:43:24.197Z,49.09
2023-02-27T02:44:24.201Z,49.09
2023-02-27T02:45:24.203Z,49.09
2023-02-27T02:46:24.227Z,49.09
2023-02-27T02:47:24.169Z,49.09
2023-02-27T02:48:24.143Z,49.09
2023-02-27T02:49:24.149Z,49.09
2023-02-27T02:50:24.125Z,49.09
2023-02-27T02:51:24.242Z,49.09
2023-02-27T02:52:24.099Z,49.09
2023-02-27T02:53:26.756Z,49.09
2023-02-27T02:54:24.083Z,49.09
2023-02-27T02:55:24.088Z,49.09
2023-02-27T02:56:24.074Z,49.19
2023-02-27T02:57:24.049Z,49.19
2023-02-27T02:58:24.033Z,49.19
2023-02-27T02:59:24.079Z,49.09
2023-02-27T03:00:24.016Z,49.09
2023-02-27T03:01:24.086Z,49.09
2023-02-27T03:02:23.990Z,49.09
2023-02-27T03:03:23.996Z,49.09
2023-02-27T03:04:23.985Z,49.09
2023-02-27T03:05:24.934Z,49.09
2023-02-27T03:06:23.958Z,49.09
2023-02-27T03:07:23.985Z,49.09
2023-02-27T03:08:23.924Z,49.09
2023-02-27T03:09:23.937Z,49.09
2023-02-27T03:10:24.505Z,49.19
2023-02-27T03:11:23.922Z,49.19
2023-02-27T03:12:23.896Z,49.19
2023-02-27T03:13:23.882Z,49.19
2023-02-27T03:14:23.859Z,49.09
2023-02-27T03:15:23.869Z,49.09
2023-02-27T03:16:23.866Z,48.99
2023-02-27T03:17:23.854Z,48.99
2023-02-27T03:18:23.815Z,48.99
2023-02-27T03:19:23.819Z,48.86
2023-02-27T03:20:23.800Z,48.86
2023-02-27T03:21:23.813Z,48.89
2023-02-27T03:22:23.770Z,48.86
2023-02-27T03:23:23.782Z,48.89
2023-02-27T03:24:23.751Z,48.99
2023-02-27T03:25:23.744Z,48.99
2023-02-27T03:26:23.744Z,48.89
2023-02-27T03:27:23.734Z,48.99
2023-02-27T03:28:23.715Z,48.99
2023-02-27T03:29:23.714Z,48.99
2023-02-27T03:30:23.732Z,48.89
2023-02-27T03:31:23.789Z,48.86
2023-02-27T03:32:23.731Z,48.86
2023-02-27T03:33:23.657Z,48.86
2023-02-27T03:34:23.664Z,48.76
2023-02-27T03:35:23.630Z,48.76
2023-02-27T03:36:23.620Z,48.66
2023-02-27T03:37:23.618Z,48.66
2023-02-27T03:38:23.596Z,48.66
2023-02-27T03:39:23.600Z,48.56
2023-02-27T03:40:23.571Z,48.56
2023-02-27T03:41:23.568Z,48.56
2023-02-27T03:42:23.557Z,48.46
2023-02-27T03:43:23.564Z,48.46
2023-02-27T03:44:23.544Z,48.46
2023-02-27T03:45:23.548Z,48.46
2023-02-27T03:46:23.521Z,48.46
2023-02-27T03:47:23.514Z,48.46
2023-02-27T03:48:23.482Z,48.46
2023-02-27T03:49:23.484Z,48.46
2023-02-27T03:50:23.479Z,48.46
2023-02-27T03:51:23.466Z,48.46
2023-02-27T03:52:23.445Z,48.46
2023-02-27T03:53:23.433Z,48.46
2023-02-27T03:54:23.436Z,48.56
2023-02-27T03:55:23.419Z,48.46
2023-02-27T03:56:23.408Z,48.56
2023-02-27T03:57:23.397Z,48.56
2023-02-27T03:58:23.374Z,48.56
2023-02-27T03:59:23.370Z,48.56
2023-02-27T04:00:23.369Z,48.56
2023-02-27T04:01:23.357Z,48.66
2023-02-27T04:02:23.339Z,48.76
2023-02-27T04:03:23.350Z,48.79
2023-02-27T04:04:23.314Z,48.79
2023-02-27T04:05:23.395Z,48.89
2023-02-27T04:06:23.292Z,48.89
2023-02-27T04:07:23.292Z,48.99
2023-02-27T04:08:23.278Z,48.99
2023-02-27T04:09:23.266Z,48.99
2023-02-27T04:10:24.018Z,48.99
2023-02-27T04:11:23.236Z,48.99
2023-02-27T04:12:23.224Z,48.99
2023-02-27T04:13:23.225Z,48.99
2023-02-27T04:14:23.200Z,48.99
2023-02-27T04:15:23.200Z,48.99
2023-02-27T04:16:23.231Z,48.99
2023-02-27T04:17:23.171Z,48.99
2023-02-27T04:18:23.172Z,48.99
2023-02-27T04:19:23.151Z,48.99
2023-02-27T04:20:23.134Z,48.99
2023-02-27T04:21:23.142Z,48.99
2023-02-27T04:22:23.130Z,48.89
2023-02-27T04:23:23.116Z,48.99
2023-02-27T04:24:23.110Z,48.99
2023-02-27T04:25:23.101Z,48.99
2023-02-27T04:26:23.076Z,48.99
2023-02-27T04:27:23.081Z,48.99
2023-02-27T04:28:23.057Z,48.99
2023-02-27T04:29:23.045Z,49.09
2023-02-27T04:30:23.039Z,49.09
2023-02-27T04:31:23.145Z,49.09
2023-02-27T04:32:23.082Z,49.09
2023-02-27T04:33:23.003Z,49.09
2023-02-27T04:34:23.003Z,49.09
2023-02-27T04:35:22.985Z,49.09
2023-02-27T04:36:22.978Z,49.09
2023-02-27T04:37:22.969Z,49.19
2023-02-27T04:38:22.974Z,49.19
2023-02-27T04:39:22.941Z,49.19
2023-02-27T04:40:22.932Z,49.19
2023-02-27T04:41:22.937Z,49.29
2023-02-27T04:42:22.903Z,49.29
2023-02-27T04:43:22.892Z,49.19
2023-02-27T04:44:22.915Z,49.19
2023-02-27T04:45:23.528Z,49.09
2023-02-27T04:46:22.874Z,48.86
2023-02-27T04:47:22.874Z,48.66
2023-02-27T04:48:22.851Z,48.46
2023-02-27T04:49:22.835Z,48.34
2023-02-27T04:50:22.980Z,48.14
2023-02-27T04:51:22.812Z,48.03
2023-02-27T04:52:22.802Z,47.81
2023-02-27T04:53:22.790Z,47.71
2023-02-27T04:54:22.787Z,47.61
2023-02-27T04:55:22.782Z,47.41
2023-02-27T04:56:22.750Z,47.28
2023-02-27T04:57:22.754Z,47.19
2023-02-27T04:58:25.179Z,47.08
2023-02-27T04:59:22.726Z,47.08
2023-02-27T05:00:22.716Z,46.98
2023-02-27T05:01:22.707Z,46.88
2023-02-27T05:02:22.765Z,46.88
2023-02-27T05:03:22.680Z,46.76
2023-02-27T05:04:22.673Z,46.76
2023-02-27T05:05:22.673Z,46.66
2023-02-27T05:06:22.640Z,46.66
2023-02-27T05:07:22.672Z,46.56
2023-02-27T05:08:22.616Z,46.46
2023-02-27T05:09:22.611Z,46.46
2023-02-27T05:10:22.665Z,46.36
2023-02-27T05:11:22.599Z,46.26
2023-02-27T05:12:22.586Z,46.26
2023-02-27T05:13:22.574Z,46.14
2023-02-27T05:14:22.562Z,46.14
2023-02-27T05:15:22.548Z,46.14
2023-02-27T05:16:22.583Z,46.14
2023-02-27T05:17:22.545Z,46.14
2023-02-27T05:18:22.512Z,46.03
2023-02-27T05:19:22.520Z,46.03
2023-02-27T05:20:22.492Z,45.94
2023-02-27T05:21:22.490Z,45.94
2023-02-27T05:22:22.495Z,45.94
2023-02-27T05:23:22.471Z,45.94
2023-02-27T05:24:22.448Z,45.83
2023-02-27T05:25:22.440Z,45.83
2023-02-27T05:26:22.431Z,45.73
2023-02-27T05:27:22.429Z,45.73
2023-02-27T05:28:22.442Z,45.73
2023-02-27T05:29:22.413Z,45.73
2023-02-27T05:30:22.397Z,45.73
2023-02-27T05:31:22.388Z,45.73
2023-02-27T05:32:22.449Z,45.63
2023-02-27T05:33:22.389Z,45.63
2023-02-27T05:34:22.357Z,45.63
2023-02-27T05:35:22.338Z,45.61
2023-02-27T05:36:22.320Z,45.61
2023-02-27T05:37:22.352Z,45.51
2023-02-27T05:38:22.323Z,45.51
2023-02-27T05:39:22.303Z,45.51
2023-02-27T05:40:22.282Z,45.51
2023-02-27T05:41:22.283Z,45.51
2023-02-27T05:42:22.213Z,45.51
2023-02-27T05:43:22.255Z,45.41
2023-02-27T05:44:22.250Z,45.41
2023-02-27T05:45:22.987Z,45.41
2023-02-27T05:46:22.226Z,45.41
2023-02-27T05:47:22.171Z,45.31
2023-02-27T05:48:22.202Z,45.41
2023-02-27T05:49:22.222Z,45.31
2023-02-27T05:50:22.181Z,45.31
2023-02-27T05:51:22.203Z,45.31
2023-02-27T05:52:22.164Z,45.31
2023-02-27T05:53:22.133Z,45.31
2023-02-27T05:54:22.078Z,45.41
2023-02-27T05:55:22.875Z,45.41
2023-02-27T05:56:22.117Z,45.41
2023-02-27T05:57:22.081Z,45.41
2023-02-27T05:58:22.081Z,45.41
2023-02-27T05:59:22.086Z,45.41
2023-02-27T06:00:22.065Z,45.41
2023-02-27T06:01:22.039Z,45.41
2023-02-27T06:02:22.176Z,45.41
2023-02-27T06:03:22.132Z,45.41
2023-02-27T06:04:22.007Z,45.31
2023-02-27T06:05:22.877Z,45.31
2023-02-27T06:06:21.971Z,45.31
2023-02-27T06:07:22.026Z,45.31
2023-02-27T06:08:21.956Z,45.31
2023-02-27T06:09:21.933Z,45.31
2023-02-27T06:10:21.921Z,45.31
2023-02-27T06:11:21.917Z,45.31
2023-02-27T06:12:21.907Z,45.31
2023-02-27T06:13:21.907Z,45.31
2023-02-27T06:14:21.882Z,45.31
2023-02-27T06:15:21.865Z,45.31
2023-02-27T06:16:21.905Z,45.41
2023-02-27T06:17:21.853Z,45.31
2023-02-27T06:18:21.893Z,45.31
2023-02-27T06:19:21.834Z,45.31
2023-02-27T06:20:21.835Z,45.31
2023-02-27T06:21:21.807Z,45.31
2023-02-27T06:22:21.801Z,45.41
2023-02-27T06:23:21.790Z,45.41
2023-02-27T06:24:22.268Z,45.41
2023-02-27T06:25:21.777Z,45.31
2023-02-27T06:26:21.753Z,45.31
2023-02-27T06:27:21.745Z,45.31
2023-02-27T06:28:21.732Z,45.31
2023-02-27T06:29:21.720Z,45.31
2023-02-27T06:30:21.764Z,45.31
2023-02-27T06:31:21.696Z,45.21
2023-02-27T06:32:21.724Z,45.21
2023-02-27T06:33:21.679Z,45.21
2023-02-27T06:34:21.684Z,45.21
2023-02-27T06:35:21.656Z,45.10
2023-02-27T06:36:21.664Z,45.10
2023-02-27T06:37:21.702Z,45.09
2023-02-27T06:38:21.628Z,45.01
2023-02-27T06:39:21.631Z,45.01
2023-02-27T06:40:21.606Z,45.01
2023-02-27T06:41:21.593Z,44.99
2023-02-27T06:42:21.592Z,44.99
2023-02-27T06:43:21.570Z,44.99
2023-02-27T06:44:21.583Z,44.99
2023-02-27T06:45:22.386Z,44.99
2023-02-27T06:46:21.594Z,44.99
2023-02-27T06:47:21.525Z,44.99
2023-02-27T06:48:21.534Z,44.89
2023-02-27T06:49:21.520Z,44.89
2023-02-27T06:50:21.500Z,44.89
2023-02-27T06:51:21.492Z,44.79
2023-02-27T06:52:21.479Z,44.79
2023-02-27T06:53:21.463Z,44.79
2023-02-27T06:54:21.469Z,44.79
2023-02-27T06:55:21.441Z,44.68
2023-02-27T06:56:28.332Z,44.68
2023-02-27T06:57:21.430Z,44.59
2023-02-27T06:58:21.425Z,44.59
2023-02-27T06:59:21.419Z,44.59
2023-02-27T07:00:21.895Z,44.48
2023-02-27T07:01:21.402Z,44.48
2023-02-27T07:02:21.375Z,44.38
2023-02-27T07:03:21.396Z,44.36
2023-02-27T07:04:21.411Z,44.36
2023-02-27T07:05:21.400Z,44.36
2023-02-27T07:06:21.345Z,44.26
2023-02-27T07:07:38.964Z,44.26
2023-02-27T07:08:21.344Z,44.26
2023-02-27T07:09:21.298Z,44.26
2023-02-27T07:10:21.317Z,44.16
2023-02-27T07:11:21.294Z,44.16
2023-02-27T07:12:21.279Z,44.16
2023-02-27T07:13:21.258Z,44.06
2023-02-27T07:14:21.262Z,44.06
2023-02-27T07:15:21.260Z,44.06
2023-02-27T07:16:21.237Z,44.06
2023-02-27T07:17:21.229Z,44.06
2023-02-27T07:18:21.209Z,43.96
2023-02-27T07:19:21.194Z,43.96
2023-02-27T07:20:21.189Z,43.96
2023-02-27T07:21:21.194Z,43.84
2023-02-27T07:22:21.201Z,43.84
2023-02-27T07:23:21.164Z,43.84
2023-02-27T07:24:21.145Z,43.84
2023-02-27T07:25:21.149Z,43.84
2023-02-27T07:26:21.129Z,43.84
2023-02-27T07:27:21.110Z,43.84
2023-02-27T07:28:21.138Z,43.84
2023-02-27T07:29:21.122Z,43.74
2023-02-27T07:30:21.086Z,43.84
2023-02-27T07:31:21.159Z,43.84
2023-02-27T07:32:21.146Z,43.84
2023-02-27T07:33:21.054Z,43.74
2023-02-27T07:34:21.050Z,43.74
2023-02-27T07:35:21.027Z,43.74
2023-02-27T07:36:21.020Z,43.74
2023-02-27T07:37:21.047Z,43.84
2023-02-27T07:38:21.065Z,43.94
2023-02-27T07:39:21.014Z,44.06
2023-02-27T07:40:20.977Z,44.06
2023-02-27T07:41:29.996Z,44.16
2023-02-27T07:42:21.021Z,44.14
2023-02-27T07:43:20.963Z,44.04
2023-02-27T07:44:20.955Z,44.04
2023-02-27T07:45:21.915Z,43.94
2023-02-27T07:46:20.957Z,43.84
2023-02-27T07:47:20.905Z,43.74
2023-02-27T07:48:20.905Z,43.64
2023-02-27T07:49:20.899Z,43.52
2023-02-27T07:50:20.975Z,43.42
2023-02-27T07:51:20.869Z,43.32
2023-02-27T07:52:20.862Z,43.22
2023-02-27T07:53:20.843Z,43.12
2023-02-27T07:54:20.844Z,43.22
2023-02-27T07:55:20.844Z,43.12
2023-02-27T07:56:20.847Z,43.22
2023-02-27T07:57:20.817Z,43.22
2023-02-27T07:58:20.800Z,43.32
2023-02-27T07:59:20.804Z,43.32
2023-02-27T08:00:20.778Z,43.42
2023-02-27T08:01:20.770Z,43.42
2023-02-27T08:02:20.793Z,43.42
2023-02-27T08:03:20.753Z,43.52
2023-02-27T08:04:20.750Z,43.52
2023-02-27T08:05:20.823Z,43.52
2023-02-27T08:06:20.716Z,43.52
2023-02-27T08:07:20.718Z,43.52
2023-02-27T08:08:20.767Z,43.52
2023-02-27T08:09:20.729Z,43.52
2023-02-27T08:10:20.676Z,43.52
2023-02-27T08:11:20.662Z,43.42
2023-02-27T08:12:20.653Z,43.42
2023-02-27T08:13:30.194Z,43.42
2023-02-27T08:14:20.675Z,43.42
2023-02-27T08:15:20.617Z,43.42
2023-02-27T08:16:20.628Z,43.42
2023-02-27T08:17:20.605Z,43.32
2023-02-27T08:18:20.618Z,43.42
2023-02-27T08:19:20.610Z,43.32
2023-02-27T08:20:20.574Z,43.32
2023-02-27T08:21:20.565Z,43.42
2023-02-27T08:22:20.591Z,43.32
2023-02-27T08:23:20.537Z,43.30
2023-02-27T08:24:20.590Z,43.30
2023-02-27T08:25:20.520Z,43.30
2023-02-27T08:26:20.507Z,43.30
2023-02-27T08:27:20.494Z,43.30
2023-02-27T08:28:20.514Z,43.32
2023-02-27T08:29:20.490Z,43.42
2023-02-27T08:30:20.473Z,43.42
2023-02-27T08:31:20.470Z,43.52
2023-02-27T08:32:20.521Z,43.52
2023-02-27T08:33:20.445Z,43.52
2023-02-27T08:34:20.430Z,43.52
2023-02-27T08:35:20.410Z,43.62
2023-02-27T08:36:20.399Z,43.62
2023-02-27T08:37:20.391Z,43.62
2023-02-27T08:38:20.376Z,43.62
2023-02-27T08:39:20.373Z,43.72
2023-02-27T08:40:20.372Z,43.72
2023-02-27T08:41:20.359Z,43.72
2023-02-27T08:42:20.337Z,43.72
2023-02-27T08:43:20.330Z,43.82
2023-02-27T08:44:20.316Z,43.82
2023-02-27T08:45:20.937Z,43.82
2023-02-27T08:46:20.322Z,43.82
2023-02-27T08:47:20.314Z,43.82
2023-02-27T08:48:20.288Z,43.82
2023-02-27T08:49:21.695Z,43.72
2023-02-27T08:50:20.260Z,43.72
2023-02-27T08:51:20.235Z,43.62
2023-02-27T08:52:20.244Z,43.62
2023-02-27T08:53:20.223Z,43.62
2023-02-27T08:54:20.265Z,43.52
2023-02-27T08:55:20.215Z,43.50
2023-02-27T08:56:20.212Z,43.40
2023-02-27T08:57:20.198Z,43.40
2023-02-27T08:58:20.187Z,43.40
2023-02-27T08:59:20.200Z,43.40
2023-02-27T09:00:20.260Z,43.30
2023-02-27T09:01:20.240Z,43.30
2023-02-27T09:02:20.171Z,43.19
2023-02-27T09:03:20.111Z,43.19
2023-02-27T09:04:20.116Z,43.19
2023-02-27T09:05:20.097Z,43.19
2023-02-27T09:06:20.097Z,43.19
2023-02-27T09:07:20.093Z,43.30
2023-02-27T09:08:20.105Z,43.30
2023-02-27T09:09:20.063Z,43.40
2023-02-27T09:10:20.069Z,43.40
2023-02-27T09:11:20.040Z,43.40
2023-02-27T09:12:20.055Z,43.50
2023-02-27T09:13:20.014Z,43.50
2023-02-27T09:14:20.057Z,43.50
2023-02-27T09:15:20.002Z,43.50
2023-02-27T09:16:20.010Z,43.50
2023-02-27T09:17:19.992Z,43.50
2023-02-27T09:18:19.959Z,43.60
2023-02-27T09:19:19.966Z,43.60
2023-02-27T09:20:19.949Z,42.90
2023-02-27T09:21:19.958Z,42.40
2023-02-27T09:22:19.925Z,41.89
2023-02-27T09:23:19.905Z,41.60
2023-02-27T09:24:20.879Z,41.29
2023-02-27T09:25:19.884Z,41.29
2023-02-27T09:26:19.921Z,41.39
2023-02-27T09:27:19.869Z,41.57
2023-02-27T09:28:19.868Z,41.67
2023-02-27T09:29:19.840Z,41.77
2023-02-27T09:30:19.837Z,41.88
2023-02-27T09:31:19.870Z,41.97
2023-02-27T09:32:19.930Z,42.10
2023-02-27T09:33:19.815Z,42.30
2023-02-27T09:34:19.799Z,42.40
2023-02-27T09:35:19.786Z,42.49
2023-02-27T09:36:19.789Z,42.60
2023-02-27T09:37:19.766Z,42.69
2023-02-27T09:38:19.758Z,42.80
2023-02-27T09:39:19.744Z,42.80
2023-02-27T09:40:19.739Z,42.88
2023-02-27T09:41:19.771Z,42.88
2023-02-27T09:42:19.723Z,42.88
2023-02-27T09:43:19.745Z,42.88
2023-02-27T09:44:23.474Z,42.97
2023-02-27T09:45:20.481Z,42.97
2023-02-27T09:46:19.732Z,42.97
2023-02-27T09:47:19.671Z,43.08
2023-02-27T09:48:19.653Z,43.08
2023-02-27T09:49:19.647Z,43.18
2023-02-27T09:50:19.766Z,43.18
2023-02-27T09:51:19.617Z,43.18
2023-02-27T09:52:19.648Z,43.16
2023-02-27T09:53:19.599Z,43.26
2023-02-27T09:54:19.589Z,43.26
2023-02-27T09:55:19.596Z,43.35
2023-02-27T09:56:19.564Z,43.35
2023-02-27T09:57:19.561Z,43.46
2023-02-27T09:58:19.550Z,43.46
2023-02-27T09:59:19.541Z,43.46
2023-02-27T10:00:19.525Z,43.46
2023-02-27T10:01:19.545Z,43.55
2023-02-27T10:02:19.622Z,43.55
2023-02-27T10:03:19.499Z,43.55
2023-02-27T10:04:19.482Z,43.66
2023-02-27T10:05:19.470Z,43.66
2023-02-27T10:06:19.484Z,43.76
2023-02-27T10:07:19.464Z,43.76
2023-02-27T10:08:19.445Z,43.85
2023-02-27T10:09:19.439Z,43.85
2023-02-27T10:10:19.445Z,43.85
2023-02-27T10:11:19.405Z,43.85
2023-02-27T10:12:19.426Z,43.96
2023-02-27T10:13:19.397Z,43.96
2023-02-27T10:14:19.380Z,43.96
2023-02-27T10:15:19.400Z,44.06
2023-02-27T10:16:19.408Z,44.06
2023-02-27T10:17:19.384Z,44.16
2023-02-27T10:18:26.844Z,44.16
2023-02-27T10:19:19.347Z,44.16
2023-02-27T10:20:19.338Z,44.26
2023-02-27T10:21:19.339Z,44.26
2023-02-27T10:22:19.335Z,44.26
2023-02-27T10:23:19.294Z,44.35
2023-02-27T10:24:19.276Z,44.35
2023-02-27T10:25:30.859Z,44.35
2023-02-27T10:26:19.277Z,44.46
2023-02-27T10:27:19.259Z,44.46
2023-02-27T10:28:19.249Z,44.46
2023-02-27T10:29:19.250Z,44.56
2023-02-27T10:30:28.324Z,44.56
2023-02-27T10:31:20.987Z,44.56
2023-02-27T10:32:19.264Z,44.56
2023-02-27T10:33:19.200Z,44.56
2023-02-27T10:34:19.177Z,44.66
2023-02-27T10:35:19.181Z,44.66
2023-02-27T10:36:32.455Z,44.76
2023-02-27T10:37:19.160Z,44.76
2023-02-27T10:38:19.134Z,44.86
2023-02-27T10:39:19.139Z,44.86
2023-02-27T10:40:19.181Z,44.96
2023-02-27T10:41:19.131Z,45.06
2023-02-27T10:42:19.098Z,45.06
2023-02-27T10:43:19.262Z,45.16
2023-02-27T10:44:19.136Z,45.16
2023-02-27T10:45:19.983Z,45.16
2023-02-27T10:46:19.118Z,45.26
2023-02-27T10:47:19.044Z,45.26
2023-02-27T10:48:19.033Z,45.26
2023-02-27T10:49:19.443Z,45.26
2023-02-27T10:50:19.002Z,45.36
2023-02-27T10:51:18.999Z,45.36
2023-02-27T10:52:19.000Z,45.36
2023-02-27T10:53:18.978Z,45.36
2023-02-27T10:54:19.083Z,45.36
2023-02-27T10:55:18.958Z,45.36
2023-02-27T10:56:18.952Z,45.36
2023-02-27T10:57:18.953Z,45.36
2023-02-27T10:58:18.927Z,45.36
2023-02-27T10:59:18.915Z,45.36
2023-02-27T11:00:18.905Z,45.36
2023-02-27T11:01:18.934Z,45.36
2023-02-27T11:02:18.886Z,45.46
2023-02-27T11:03:18.872Z,45.46
2023-02-27T11:04:18.935Z,45.46
2023-02-27T11:05:18.851Z,45.56
2023-02-27T11:06:18.846Z,45.66
2023-02-27T11:07:18.842Z,45.66
2023-02-27T11:08:18.833Z,45.66
2023-02-27T11:09:18.805Z,45.76
2023-02-27T11:10:18.788Z,45.86
2023-02-27T11:11:18.809Z,45.86
2023-02-27T11:12:18.795Z,45.86
2023-02-27T11:13:18.794Z,45.96
2023-02-27T11:14:18.796Z,45.96
2023-02-27T11:15:18.754Z,46.06
2023-02-27T11:16:18.798Z,46.06
2023-02-27T11:17:18.737Z,46.16
2023-02-27T11:18:18.718Z,46.16
2023-02-27T11:19:18.702Z,46.26
2023-02-27T11:20:18.691Z,46.26
2023-02-27T11:21:18.710Z,46.26
2023-02-27T11:22:18.705Z,46.26
2023-02-27T11:23:18.687Z,46.36
2023-02-27T11:24:18.655Z,46.36
2023-02-27T11:25:18.680Z,46.36
2023-02-27T11:26:18.658Z,46.46
2023-02-27T11:27:18.624Z,46.46
2023-02-27T11:28:18.632Z,46.56
2023-02-27T11:29:18.629Z,46.56
2023-02-27T11:30:18.756Z,46.56
2023-02-27T11:31:18.647Z,46.66
2023-02-27T11:32:18.598Z,46.66
2023-02-27T11:33:18.572Z,46.76
2023-02-27T11:34:18.556Z,46.76
2023-02-27T11:35:18.548Z,46.78
2023-02-27T11:36:18.610Z,46.58
2023-02-27T11:37:18.557Z,46.48
2023-02-27T11:38:18.521Z,46.38
2023-02-27T11:39:18.518Z,46.28
2023-02-27T11:40:18.507Z,46.18
2023-02-27T11:41:18.504Z,46.08
2023-02-27T11:42:18.504Z,45.98
2023-02-27T11:43:18.477Z,45.98
2023-02-27T11:44:23.960Z,45.98
2023-02-27T11:45:19.002Z,45.88
2023-02-27T11:46:46.229Z,45.88
2023-02-27T11:47:18.597Z,45.88
2023-02-27T11:48:18.409Z,45.78
2023-02-27T11:49:18.407Z,45.68
2023-02-27T11:50:18.409Z,45.68
2023-02-27T11:51:18.381Z,45.58
2023-02-27T11:52:18.374Z,45.58
2023-02-27T11:53:18.385Z,45.58
2023-02-27T11:54:18.392Z,45.48
2023-02-27T11:55:18.369Z,45.48
2023-02-27T11:56:18.350Z,45.38
2023-02-27T11:57:18.358Z,45.38
2023-02-27T11:58:18.323Z,45.38
2023-02-27T11:59:18.357Z,45.28
2023-02-27T12:00:18.288Z,45.28
2023-02-27T12:01:18.269Z,45.28
2023-02-27T12:02:18.279Z,45.08
2023-02-27T12:03:18.249Z,45.18
2023-02-27T12:04:18.315Z,45.28
2023-02-27T12:05:18.247Z,45.28
2023-02-27T12:06:18.233Z,45.28
2023-02-27T12:07:18.220Z,45.28
2023-02-27T12:08:18.204Z,45.28
2023-02-27T12:09:18.192Z,45.38
2023-02-27T12:10:18.216Z,45.38
2023-02-27T12:11:18.182Z,45.38
2023-02-27T12:12:18.178Z,45.38
2023-02-27T12:13:18.157Z,45.38
2023-02-27T12:14:18.140Z,45.48
2023-02-27T12:15:18.155Z,45.48
2023-02-27T12:16:18.204Z,45.58
2023-02-27T12:17:18.129Z,45.58
2023-02-27T12:18:18.109Z,45.58
2023-02-27T12:19:18.090Z,45.58
2023-02-27T12:20:18.071Z,45.68
2023-02-27T12:21:18.085Z,45.68
2023-02-27T12:22:18.066Z,45.68
2023-02-27T12:23:18.059Z,45.68
2023-02-27T12:24:18.031Z,45.78
2023-02-27T12:25:18.054Z,45.78
2023-02-27T12:26:18.022Z,45.78
2023-02-27T12:27:18.025Z,45.78
2023-02-27T12:28:17.997Z,45.68
2023-02-27T12:29:17.991Z,45.78
2023-02-27T12:30:17.965Z,45.78
2023-02-27T12:31:18.057Z,45.78
2023-02-27T12:32:18.002Z,45.78
2023-02-27T12:33:17.944Z,45.78
2023-02-27T12:34:17.935Z,45.78
2023-02-27T12:35:17.913Z,45.78
2023-02-27T12:36:17.940Z,45.78
2023-02-27T12:37:17.917Z,45.78
2023-02-27T12:38:17.881Z,45.88
2023-02-27T12:39:17.907Z,45.88
2023-02-27T12:40:17.864Z,45.88
2023-02-27T12:41:17.862Z,45.98
2023-02-27T12:42:17.840Z,45.98
2023-02-27T12:43:17.940Z,45.98
2023-02-27T12:44:17.841Z,45.98
2023-02-27T12:45:18.516Z,45.98
2023-02-27T12:46:17.821Z,46.08
2023-02-27T12:47:17.794Z,46.08
2023-02-27T12:48:17.798Z,46.08
2023-02-27T12:49:17.778Z,46.08
2023-02-27T12:50:17.778Z,46.08
2023-02-27T12:51:17.747Z,46.08
2023-02-27T12:52:17.776Z,46.18